sensor_id;sensor_type;location;lat;lon;timestamp;P1;durP1;ratioP1;P2;durP2;ratioP2
3197;SDS011;1611;49.394;11.136;2023-09-30T00:01:40;20.10;;;8.57;;
3197;SDS011;1611;49.394;11.136;2023-09-30T00:04:08;22.20;;;8.27;;
3197;SDS011;1611;49.394;11.136;2023-09-30T00:06:35;17.80;;;7.90;;
3197;SDS011;1611;49.394;11.136;2023-09-30T00:09:03;16.13;;;6.97;;
3197;SDS011;1611;49.394;11.136;2023-09-30T00:11:30;18.83;;;7.80;;
3197;SDS011;1611;49.394;11.136;2023-09-30T00:13:57;17.30;;;6.97;;
3197;SDS011;1611;49.394;11.136;2023-09-30T00:16:24;21.00;;;7.13;;
3197;SDS011;1611;49.394;11.136;2023-09-30T00:18:50;19.80;;;7.30;;
3197;SDS011;1611;49.394;11.136;2023-09-30T00:21:18;16.70;;;7.20;;
3197;SDS011;1611;49.394;11.136;2023-09-30T00:23:45;12.13;;;6.73;;
3197;SDS011;1611;49.394;11.136;2023-09-30T00:26:13;16.50;;;6.97;;
3197;SDS011;1611;49.394;11.136;2023-09-30T00:28:40;14.73;;;6.83;;
3197;SDS011;1611;49.394;11.136;2023-09-30T00:31:07;13.60;;;7.30;;
3197;SDS011;1611;49.394;11.136;2023-09-30T00:33:35;16.10;;;6.63;;
3197;SDS011;1611;49.394;11.136;2023-09-30T00:36:05;12.10;;;6.00;;
3197;SDS011;1611;49.394;11.136;2023-09-30T00:38:33;16.60;;;7.00;;
3197;SDS011;1611;49.394;11.136;2023-09-30T00:40:59;12.27;;;5.90;;
3197;SDS011;1611;49.394;11.136;2023-09-30T00:43:27;17.50;;;6.40;;
3197;SDS011;1611;49.394;11.136;2023-09-30T00:45:56;18.13;;;6.13;;
3197;SDS011;1611;49.394;11.136;2023-09-30T00:48:30;18.37;;;7.37;;
3197;SDS011;1611;49.394;11.136;2023-09-30T00:50:58;11.33;;;5.80;;
3197;SDS011;1611;49.394;11.136;2023-09-30T00:53:25;12.00;;;6.10;;
3197;SDS011;1611;49.394;11.136;2023-09-30T00:55:52;12.40;;;6.37;;
3197;SDS011;1611;49.394;11.136;2023-09-30T00:58:21;11.33;;;6.43;;
3197;SDS011;1611;49.394;11.136;2023-09-30T01:00:52;16.90;;;7.23;;
3197;SDS011;1611;49.394;11.136;2023-09-30T01:03:19;14.00;;;6.30;;
3197;SDS011;1611;49.394;11.136;2023-09-30T01:05:46;10.93;;;5.70;;
3197;SDS011;1611;49.394;11.136;2023-09-30T01:08:14;12.97;;;6.43;;
3197;SDS011;1611;49.394;11.136;2023-09-30T01:10:41;14.90;;;6.47;;
3197;SDS011;1611;49.394;11.136;2023-09-30T01:13:08;13.93;;;6.60;;
3197;SDS011;1611;49.394;11.136;2023-09-30T01:15:35;13.97;;;6.33;;
3197;SDS011;1611;49.394;11.136;2023-09-30T01:18:03;12.27;;;5.60;;
3197;SDS011;1611;49.394;11.136;2023-09-30T01:20:31;11.10;;;5.07;;
3197;SDS011;1611;49.394;11.136;2023-09-30T01:22:59;11.57;;;5.40;;
3197;SDS011;1611;49.394;11.136;2023-09-30T01:25:28;13.53;;;6.00;;
3197;SDS011;1611;49.394;11.136;2023-09-30T01:27:55;11.60;;;5.80;;
3197;SDS011;1611;49.394;11.136;2023-09-30T01:30:25;16.40;;;6.77;;
3197;SDS011;1611;49.394;11.136;2023-09-30T01:32:51;14.90;;;6.40;;
3197;SDS011;1611;49.394;11.136;2023-09-30T01:35:18;13.20;;;5.70;;
3197;SDS011;1611;49.394;11.136;2023-09-30T01:37:46;9.40;;;5.33;;
3197;SDS011;1611;49.394;11.136;2023-09-30T01:40:14;15.27;;;5.50;;
3197;SDS011;1611;49.394;11.136;2023-09-30T01:42:43;17.43;;;6.60;;
3197;SDS011;1611;49.394;11.136;2023-09-30T01:45:10;13.23;;;6.10;;
3197;SDS011;1611;49.394;11.136;2023-09-30T01:47:37;9.40;;;5.13;;
3197;SDS011;1611;49.394;11.136;2023-09-30T01:50:04;16.17;;;6.47;;
3197;SDS011;1611;49.394;11.136;2023-09-30T01:52:31;12.23;;;5.13;;
3197;SDS011;1611;49.394;11.136;2023-09-30T01:54:58;14.40;;;5.87;;
3197;SDS011;1611;49.394;11.136;2023-09-30T01:57:26;14.33;;;6.03;;
3197;SDS011;1611;49.394;11.136;2023-09-30T01:59:53;11.77;;;5.50;;
3197;SDS011;1611;49.394;11.136;2023-09-30T02:02:20;14.80;;;6.07;;
3197;SDS011;1611;49.394;11.136;2023-09-30T02:04:46;12.30;;;5.33;;
3197;SDS011;1611;49.394;11.136;2023-09-30T02:07:13;13.70;;;5.60;;
3197;SDS011;1611;49.394;11.136;2023-09-30T02:09:40;12.53;;;6.00;;
3197;SDS011;1611;49.394;11.136;2023-09-30T02:12:06;9.37;;;5.70;;
3197;SDS011;1611;49.394;11.136;2023-09-30T02:14:35;16.47;;;6.33;;
3197;SDS011;1611;49.394;11.136;2023-09-30T02:17:04;9.57;;;5.10;;
3197;SDS011;1611;49.394;11.136;2023-09-30T02:19:31;13.40;;;6.07;;
3197;SDS011;1611;49.394;11.136;2023-09-30T02:21:58;10.77;;;5.27;;
3197;SDS011;1611;49.394;11.136;2023-09-30T02:24:25;13.03;;;5.40;;
3197;SDS011;1611;49.394;11.136;2023-09-30T02:26:52;11.13;;;5.50;;
3197;SDS011;1611;49.394;11.136;2023-09-30T02:29:19;9.07;;;5.00;;
3197;SDS011;1611;49.394;11.136;2023-09-30T02:31:47;17.83;;;6.57;;
3197;SDS011;1611;49.394;11.136;2023-09-30T02:34:14;11.40;;;6.20;;
3197;SDS011;1611;49.394;11.136;2023-09-30T02:36:40;13.77;;;5.87;;
3197;SDS011;1611;49.394;11.136;2023-09-30T02:39:07;14.80;;;6.57;;
3197;SDS011;1611;49.394;11.136;2023-09-30T02:41:34;12.87;;;5.30;;
3197;SDS011;1611;49.394;11.136;2023-09-30T02:44:02;8.17;;;5.70;;
3197;SDS011;1611;49.394;11.136;2023-09-30T02:46:29;10.40;;;5.53;;
3197;SDS011;1611;49.394;11.136;2023-09-30T02:48:57;15.97;;;5.40;;
3197;SDS011;1611;49.394;11.136;2023-09-30T02:51:24;13.40;;;5.90;;
3197;SDS011;1611;49.394;11.136;2023-09-30T02:53:51;14.37;;;5.70;;
3197;SDS011;1611;49.394;11.136;2023-09-30T02:56:18;9.40;;;5.40;;
3197;SDS011;1611;49.394;11.136;2023-09-30T02:58:45;12.00;;;5.93;;
3197;SDS011;1611;49.394;11.136;2023-09-30T03:01:13;16.60;;;5.90;;
3197;SDS011;1611;49.394;11.136;2023-09-30T03:03:42;11.70;;;5.17;;
3197;SDS011;1611;49.394;11.136;2023-09-30T03:06:11;9.40;;;5.40;;
3197;SDS011;1611;49.394;11.136;2023-09-30T03:08:39;7.97;;;5.10;;
3197;SDS011;1611;49.394;11.136;2023-09-30T03:11:06;7.93;;;4.90;;
3197;SDS011;1611;49.394;11.136;2023-09-30T03:13:33;9.10;;;4.60;;
3197;SDS011;1611;49.394;11.136;2023-09-30T03:16:00;8.77;;;4.40;;
3197;SDS011;1611;49.394;11.136;2023-09-30T03:18:27;9.83;;;4.67;;
3197;SDS011;1611;49.394;11.136;2023-09-30T03:20:58;6.57;;;3.93;;
3197;SDS011;1611;49.394;11.136;2023-09-30T03:23:28;4.80;;;3.77;;
3197;SDS011;1611;49.394;11.136;2023-09-30T03:25:56;8.53;;;4.03;;
3197;SDS011;1611;49.394;11.136;2023-09-30T03:28:23;5.30;;;3.53;;
3197;SDS011;1611;49.394;11.136;2023-09-30T03:30:50;4.17;;;3.60;;
3197;SDS011;1611;49.394;11.136;2023-09-30T03:33:17;4.47;;;3.20;;
3197;SDS011;1611;49.394;11.136;2023-09-30T03:35:43;3.57;;;3.27;;
3197;SDS011;1611;49.394;11.136;2023-09-30T03:38:11;8.20;;;3.20;;
3197;SDS011;1611;49.394;11.136;2023-09-30T03:40:39;3.50;;;2.40;;
3197;SDS011;1611;49.394;11.136;2023-09-30T03:43:12;2.80;;;2.60;;
3197;SDS011;1611;49.394;11.136;2023-09-30T03:45:39;4.17;;;3.37;;
3197;SDS011;1611;49.394;11.136;2023-09-30T03:48:06;13.33;;;4.77;;
3197;SDS011;1611;49.394;11.136;2023-09-30T03:50:35;9.33;;;3.80;;
3197;SDS011;1611;49.394;11.136;2023-09-30T03:53:03;5.77;;;4.23;;
3197;SDS011;1611;49.394;11.136;2023-09-30T03:55:32;6.83;;;3.93;;
3197;SDS011;1611;49.394;11.136;2023-09-30T03:58:01;8.77;;;4.40;;
3197;SDS011;1611;49.394;11.136;2023-09-30T04:00:29;8.03;;;3.83;;
3197;SDS011;1611;49.394;11.136;2023-09-30T04:02:56;10.60;;;4.83;;
3197;SDS011;1611;49.394;11.136;2023-09-30T04:05:24;8.33;;;4.03;;
3197;SDS011;1611;49.394;11.136;2023-09-30T04:07:54;7.17;;;3.90;;
3197;SDS011;1611;49.394;11.136;2023-09-30T04:10:21;5.60;;;3.57;;
3197;SDS011;1611;49.394;11.136;2023-09-30T04:12:48;16.83;;;4.20;;
3197;SDS011;1611;49.394;11.136;2023-09-30T04:15:17;12.57;;;4.60;;
3197;SDS011;1611;49.394;11.136;2023-09-30T04:17:44;10.03;;;4.10;;
3197;SDS011;1611;49.394;11.136;2023-09-30T04:20:10;8.30;;;3.93;;
3197;SDS011;1611;49.394;11.136;2023-09-30T04:22:41;7.43;;;4.50;;
3197;SDS011;1611;49.394;11.136;2023-09-30T04:25:13;4.07;;;2.90;;
3197;SDS011;1611;49.394;11.136;2023-09-30T04:27:41;8.20;;;3.57;;
3197;SDS011;1611;49.394;11.136;2023-09-30T04:30:09;7.50;;;3.17;;
3197;SDS011;1611;49.394;11.136;2023-09-30T04:32:38;6.80;;;3.93;;
3197;SDS011;1611;49.394;11.136;2023-09-30T04:35:05;7.77;;;3.70;;
3197;SDS011;1611;49.394;11.136;2023-09-30T04:37:33;7.20;;;3.67;;
3197;SDS011;1611;49.394;11.136;2023-09-30T04:40:01;8.27;;;4.17;;
3197;SDS011;1611;49.394;11.136;2023-09-30T04:42:40;5.93;;;3.80;;
3197;SDS011;1611;49.394;11.136;2023-09-30T04:45:07;9.13;;;4.03;;
3197;SDS011;1611;49.394;11.136;2023-09-30T04:47:35;5.90;;;3.87;;
3197;SDS011;1611;49.394;11.136;2023-09-30T04:50:04;5.07;;;3.90;;
3197;SDS011;1611;49.394;11.136;2023-09-30T04:52:32;6.80;;;3.70;;
3197;SDS011;1611;49.394;11.136;2023-09-30T04:55:00;5.53;;;3.07;;
3197;SDS011;1611;49.394;11.136;2023-09-30T04:57:26;5.13;;;2.97;;
3197;SDS011;1611;49.394;11.136;2023-09-30T04:59:53;6.00;;;3.00;;
3197;SDS011;1611;49.394;11.136;2023-09-30T05:02:20;7.00;;;2.97;;
3197;SDS011;1611;49.394;11.136;2023-09-30T05:04:48;11.10;;;3.53;;
3197;SDS011;1611;49.394;11.136;2023-09-30T05:07:15;7.57;;;3.37;;
3197;SDS011;1611;49.394;11.136;2023-09-30T05:09:41;7.63;;;4.37;;
3197;SDS011;1611;49.394;11.136;2023-09-30T05:12:09;6.80;;;3.50;;
3197;SDS011;1611;49.394;11.136;2023-09-30T05:14:36;4.13;;;3.70;;
3197;SDS011;1611;49.394;11.136;2023-09-30T05:17:04;7.60;;;3.50;;
3197;SDS011;1611;49.394;11.136;2023-09-30T05:19:30;7.80;;;3.10;;
3197;SDS011;1611;49.394;11.136;2023-09-30T05:21:59;5.00;;;3.47;;
3197;SDS011;1611;49.394;11.136;2023-09-30T05:24:28;8.87;;;3.83;;
3197;SDS011;1611;49.394;11.136;2023-09-30T05:26:55;5.67;;;3.40;;
3197;SDS011;1611;49.394;11.136;2023-09-30T05:29:21;7.23;;;3.10;;
3197;SDS011;1611;49.394;11.136;2023-09-30T05:31:48;7.20;;;3.27;;
3197;SDS011;1611;49.394;11.136;2023-09-30T05:34:15;6.43;;;3.17;;
3197;SDS011;1611;49.394;11.136;2023-09-30T05:36:42;8.13;;;4.00;;
3197;SDS011;1611;49.394;11.136;2023-09-30T05:39:10;4.93;;;3.53;;
3197;SDS011;1611;49.394;11.136;2023-09-30T05:41:37;4.57;;;2.90;;
3197;SDS011;1611;49.394;11.136;2023-09-30T05:44:04;7.10;;;4.00;;
3197;SDS011;1611;49.394;11.136;2023-09-30T05:46:33;6.07;;;3.73;;
3197;SDS011;1611;49.394;11.136;2023-09-30T05:48:59;4.90;;;3.10;;
3197;SDS011;1611;49.394;11.136;2023-09-30T05:51:27;5.10;;;3.37;;
3197;SDS011;1611;49.394;11.136;2023-09-30T05:53:53;9.20;;;3.87;;
3197;SDS011;1611;49.394;11.136;2023-09-30T05:56:22;5.23;;;3.40;;
3197;SDS011;1611;49.394;11.136;2023-09-30T05:58:48;3.70;;;3.40;;
3197;SDS011;1611;49.394;11.136;2023-09-30T06:01:15;3.77;;;3.23;;
3197;SDS011;1611;49.394;11.136;2023-09-30T06:03:44;3.70;;;3.03;;
3197;SDS011;1611;49.394;11.136;2023-09-30T06:06:11;8.93;;;3.90;;
3197;SDS011;1611;49.394;11.136;2023-09-30T06:08:40;7.07;;;3.23;;
3197;SDS011;1611;49.394;11.136;2023-09-30T06:11:06;6.43;;;3.53;;
3197;SDS011;1611;49.394;11.136;2023-09-30T06:13:34;3.60;;;3.30;;
3197;SDS011;1611;49.394;11.136;2023-09-30T06:16:01;7.00;;;4.20;;
3197;SDS011;1611;49.394;11.136;2023-09-30T06:18:28;6.40;;;3.97;;
3197;SDS011;1611;49.394;11.136;2023-09-30T06:20:55;5.23;;;3.70;;
3197;SDS011;1611;49.394;11.136;2023-09-30T06:23:22;3.70;;;3.40;;
3197;SDS011;1611;49.394;11.136;2023-09-30T06:25:49;7.40;;;3.87;;
3197;SDS011;1611;49.394;11.136;2023-09-30T06:28:16;5.07;;;3.67;;
3197;SDS011;1611;49.394;11.136;2023-09-30T06:30:44;4.40;;;3.37;;
3197;SDS011;1611;49.394;11.136;2023-09-30T06:33:11;6.37;;;4.00;;
3197;SDS011;1611;49.394;11.136;2023-09-30T06:35:40;3.93;;;3.10;;
3197;SDS011;1611;49.394;11.136;2023-09-30T06:38:15;10.87;;;4.10;;
3197;SDS011;1611;49.394;11.136;2023-09-30T06:40:42;12.13;;;4.33;;
3197;SDS011;1611;49.394;11.136;2023-09-30T06:43:10;5.50;;;3.83;;
3197;SDS011;1611;49.394;11.136;2023-09-30T06:45:37;5.30;;;4.07;;
3197;SDS011;1611;49.394;11.136;2023-09-30T06:48:08;5.23;;;4.60;;
3197;SDS011;1611;49.394;11.136;2023-09-30T06:50:37;9.03;;;4.93;;
3197;SDS011;1611;49.394;11.136;2023-09-30T06:53:05;7.03;;;4.73;;
3197;SDS011;1611;49.394;11.136;2023-09-30T06:55:34;9.30;;;5.30;;
3197;SDS011;1611;49.394;11.136;2023-09-30T06:58:02;10.17;;;5.33;;
3197;SDS011;1611;49.394;11.136;2023-09-30T07:00:32;13.70;;;4.97;;
3197;SDS011;1611;49.394;11.136;2023-09-30T07:02:59;7.00;;;5.23;;
3197;SDS011;1611;49.394;11.136;2023-09-30T07:05:27;7.90;;;5.40;;
3197;SDS011;1611;49.394;11.136;2023-09-30T07:07:55;9.13;;;5.30;;
3197;SDS011;1611;49.394;11.136;2023-09-30T07:10:22;9.37;;;5.70;;
3197;SDS011;1611;49.394;11.136;2023-09-30T07:12:48;5.97;;;5.10;;
3197;SDS011;1611;49.394;11.136;2023-09-30T07:15:15;7.60;;;5.30;;
3197;SDS011;1611;49.394;11.136;2023-09-30T07:17:42;5.77;;;4.70;;
3197;SDS011;1611;49.394;11.136;2023-09-30T07:20:11;5.80;;;5.20;;
3197;SDS011;1611;49.394;11.136;2023-09-30T07:22:39;6.50;;;4.67;;
3197;SDS011;1611;49.394;11.136;2023-09-30T07:25:06;12.07;;;4.97;;
3197;SDS011;1611;49.394;11.136;2023-09-30T07:27:34;12.83;;;5.87;;
3197;SDS011;1611;49.394;11.136;2023-09-30T07:30:01;8.07;;;5.33;;
3197;SDS011;1611;49.394;11.136;2023-09-30T07:32:31;11.60;;;6.30;;
3197;SDS011;1611;49.394;11.136;2023-09-30T07:34:58;12.50;;;5.97;;
3197;SDS011;1611;49.394;11.136;2023-09-30T07:37:25;6.07;;;4.20;;
3197;SDS011;1611;49.394;11.136;2023-09-30T07:39:53;7.90;;;5.10;;
3197;SDS011;1611;49.394;11.136;2023-09-30T07:42:20;15.20;;;4.87;;
3197;SDS011;1611;49.394;11.136;2023-09-30T07:44:47;6.73;;;4.47;;
3197;SDS011;1611;49.394;11.136;2023-09-30T07:47:14;4.20;;;3.30;;
3197;SDS011;1611;49.394;11.136;2023-09-30T07:49:41;6.30;;;4.10;;
3197;SDS011;1611;49.394;11.136;2023-09-30T07:52:08;8.90;;;4.10;;
3197;SDS011;1611;49.394;11.136;2023-09-30T07:54:36;8.93;;;4.63;;
3197;SDS011;1611;49.394;11.136;2023-09-30T07:57:04;5.43;;;4.00;;
3197;SDS011;1611;49.394;11.136;2023-09-30T07:59:30;5.27;;;3.80;;
3197;SDS011;1611;49.394;11.136;2023-09-30T08:01:58;8.60;;;4.87;;
3197;SDS011;1611;49.394;11.136;2023-09-30T08:04:25;7.73;;;4.27;;
3197;SDS011;1611;49.394;11.136;2023-09-30T08:06:52;7.60;;;4.10;;
3197;SDS011;1611;49.394;11.136;2023-09-30T08:09:19;7.37;;;4.33;;
3197;SDS011;1611;49.394;11.136;2023-09-30T08:11:47;12.27;;;4.30;;
3197;SDS011;1611;49.394;11.136;2023-09-30T08:14:16;11.03;;;4.80;;
3197;SDS011;1611;49.394;11.136;2023-09-30T08:16:43;4.67;;;4.10;;
3197;SDS011;1611;49.394;11.136;2023-09-30T08:19:09;5.43;;;3.83;;
3197;SDS011;1611;49.394;11.136;2023-09-30T08:21:36;16.00;;;5.07;;
3197;SDS011;1611;49.394;11.136;2023-09-30T08:24:03;7.50;;;4.93;;
3197;SDS011;1611;49.394;11.136;2023-09-30T08:26:30;6.70;;;3.90;;
3197;SDS011;1611;49.394;11.136;2023-09-30T08:28:58;10.20;;;4.40;;
3197;SDS011;1611;49.394;11.136;2023-09-30T08:31:26;8.37;;;4.83;;
3197;SDS011;1611;49.394;11.136;2023-09-30T08:33:52;8.43;;;4.20;;
3197;SDS011;1611;49.394;11.136;2023-09-30T08:36:19;8.40;;;3.80;;
3197;SDS011;1611;49.394;11.136;2023-09-30T08:38:46;4.93;;;3.90;;
3197;SDS011;1611;49.394;11.136;2023-09-30T08:41:15;5.23;;;3.83;;
3197;SDS011;1611;49.394;11.136;2023-09-30T08:43:57;8.97;;;4.77;;
3197;SDS011;1611;49.394;11.136;2023-09-30T08:46:28;8.57;;;4.00;;
3197;SDS011;1611;49.394;11.136;2023-09-30T08:48:57;6.33;;;4.23;;
3197;SDS011;1611;49.394;11.136;2023-09-30T08:51:24;5.70;;;4.47;;
3197;SDS011;1611;49.394;11.136;2023-09-30T08:53:51;9.10;;;4.50;;
3197;SDS011;1611;49.394;11.136;2023-09-30T08:56:20;10.87;;;5.23;;
3197;SDS011;1611;49.394;11.136;2023-09-30T08:58:53;6.93;;;3.70;;
3197;SDS011;1611;49.394;11.136;2023-09-30T09:01:23;7.67;;;4.70;;
3197;SDS011;1611;49.394;11.136;2023-09-30T09:03:51;11.90;;;5.47;;
3197;SDS011;1611;49.394;11.136;2023-09-30T09:06:18;9.70;;;6.63;;
3197;SDS011;1611;49.394;11.136;2023-09-30T09:08:46;5.53;;;3.70;;
3197;SDS011;1611;49.394;11.136;2023-09-30T09:11:13;8.90;;;4.97;;
3197;SDS011;1611;49.394;11.136;2023-09-30T09:13:47;6.10;;;4.37;;
3197;SDS011;1611;49.394;11.136;2023-09-30T09:16:16;6.63;;;4.43;;
3197;SDS011;1611;49.394;11.136;2023-09-30T09:18:44;9.17;;;4.37;;
3197;SDS011;1611;49.394;11.136;2023-09-30T09:21:14;12.57;;;4.80;;
3197;SDS011;1611;49.394;11.136;2023-09-30T09:23:43;13.60;;;7.90;;
3197;SDS011;1611;49.394;11.136;2023-09-30T09:26:10;25.37;;;11.33;;
3197;SDS011;1611;49.394;11.136;2023-09-30T09:28:39;6.17;;;4.00;;
3197;SDS011;1611;49.394;11.136;2023-09-30T09:31:19;6.87;;;3.93;;
3197;SDS011;1611;49.394;11.136;2023-09-30T09:33:48;5.80;;;3.47;;
3197;SDS011;1611;49.394;11.136;2023-09-30T09:36:16;6.30;;;4.00;;
3197;SDS011;1611;49.394;11.136;2023-09-30T09:38:44;6.80;;;4.50;;
3197;SDS011;1611;49.394;11.136;2023-09-30T09:41:13;5.53;;;3.93;;
3197;SDS011;1611;49.394;11.136;2023-09-30T09:43:40;13.63;;;3.80;;
3197;SDS011;1611;49.394;11.136;2023-09-30T09:46:08;7.10;;;4.30;;
3197;SDS011;1611;49.394;11.136;2023-09-30T09:48:35;8.17;;;4.10;;
3197;SDS011;1611;49.394;11.136;2023-09-30T09:51:03;7.43;;;4.07;;
3197;SDS011;1611;49.394;11.136;2023-09-30T09:53:34;9.33;;;4.10;;
3197;SDS011;1611;49.394;11.136;2023-09-30T09:56:03;12.30;;;3.83;;
3197;SDS011;1611;49.394;11.136;2023-09-30T09:58:32;8.13;;;3.47;;
3197;SDS011;1611;49.394;11.136;2023-09-30T10:01:00;8.77;;;4.67;;
3197;SDS011;1611;49.394;11.136;2023-09-30T10:03:27;8.10;;;3.80;;
3197;SDS011;1611;49.394;11.136;2023-09-30T10:05:54;9.57;;;4.63;;
3197;SDS011;1611;49.394;11.136;2023-09-30T10:08:21;6.80;;;4.33;;
3197;SDS011;1611;49.394;11.136;2023-09-30T10:10:59;8.70;;;4.37;;
3197;SDS011;1611;49.394;11.136;2023-09-30T10:19:17;10.23;;;4.00;;
3197;SDS011;1611;49.394;11.136;2023-09-30T10:24:51;7.70;;;4.10;;
3197;SDS011;1611;49.394;11.136;2023-09-30T10:27:34;4.93;;;4.13;;
3197;SDS011;1611;49.394;11.136;2023-09-30T10:30:09;11.90;;;4.73;;
3197;SDS011;1611;49.394;11.136;2023-09-30T10:35:45;7.00;;;3.60;;
3197;SDS011;1611;49.394;11.136;2023-09-30T10:41:06;6.17;;;4.40;;
3197;SDS011;1611;49.394;11.136;2023-09-30T10:43:36;6.73;;;4.27;;
3197;SDS011;1611;49.394;11.136;2023-09-30T10:46:04;8.50;;;4.80;;
3197;SDS011;1611;49.394;11.136;2023-09-30T10:48:51;6.00;;;3.90;;
3197;SDS011;1611;49.394;11.136;2023-09-30T10:51:18;7.67;;;4.47;;
3197;SDS011;1611;49.394;11.136;2023-09-30T10:53:47;8.07;;;4.37;;
3197;SDS011;1611;49.394;11.136;2023-09-30T10:56:16;5.93;;;3.97;;
3197;SDS011;1611;49.394;11.136;2023-09-30T10:58:46;6.70;;;4.73;;
3197;SDS011;1611;49.394;11.136;2023-09-30T11:01:14;9.17;;;5.13;;
3197;SDS011;1611;49.394;11.136;2023-09-30T11:03:42;11.77;;;4.87;;
3197;SDS011;1611;49.394;11.136;2023-09-30T11:06:11;8.47;;;4.17;;
3197;SDS011;1611;49.394;11.136;2023-09-30T11:08:44;7.60;;;4.53;;
3197;SDS011;1611;49.394;11.136;2023-09-30T11:11:12;7.10;;;4.30;;
3197;SDS011;1611;49.394;11.136;2023-09-30T11:13:39;10.17;;;4.90;;
3197;SDS011;1611;49.394;11.136;2023-09-30T11:16:08;8.47;;;4.97;;
3197;SDS011;1611;49.394;11.136;2023-09-30T11:18:35;12.20;;;4.87;;
3197;SDS011;1611;49.394;11.136;2023-09-30T11:21:03;11.70;;;5.17;;
3197;SDS011;1611;49.394;11.136;2023-09-30T11:23:32;6.80;;;4.50;;
3197;SDS011;1611;49.394;11.136;2023-09-30T11:25:59;9.60;;;5.10;;
3197;SDS011;1611;49.394;11.136;2023-09-30T11:28:34;6.47;;;4.40;;
3197;SDS011;1611;49.394;11.136;2023-09-30T11:31:02;12.60;;;5.47;;
3197;SDS011;1611;49.394;11.136;2023-09-30T11:33:32;9.00;;;5.53;;
3197;SDS011;1611;49.394;11.136;2023-09-30T11:36:13;9.00;;;5.20;;
3197;SDS011;1611;49.394;11.136;2023-09-30T11:38:43;9.50;;;5.20;;
3197;SDS011;1611;49.394;11.136;2023-09-30T11:41:11;12.53;;;4.93;;
3197;SDS011;1611;49.394;11.136;2023-09-30T11:43:37;10.07;;;5.33;;
3197;SDS011;1611;49.394;11.136;2023-09-30T11:46:05;10.27;;;5.47;;
3197;SDS011;1611;49.394;11.136;2023-09-30T11:48:35;6.60;;;5.07;;
3197;SDS011;1611;49.394;11.136;2023-09-30T11:51:02;8.67;;;4.87;;
3197;SDS011;1611;49.394;11.136;2023-09-30T11:53:30;8.63;;;5.07;;
3197;SDS011;1611;49.394;11.136;2023-09-30T11:55:57;7.07;;;4.80;;
3197;SDS011;1611;49.394;11.136;2023-09-30T11:58:25;6.77;;;4.93;;
3197;SDS011;1611;49.394;11.136;2023-09-30T12:00:55;9.23;;;5.03;;
3197;SDS011;1611;49.394;11.136;2023-09-30T12:03:24;16.33;;;6.03;;
3197;SDS011;1611;49.394;11.136;2023-09-30T12:05:53;8.30;;;4.80;;
3197;SDS011;1611;49.394;11.136;2023-09-30T12:08:21;6.50;;;4.50;;
3197;SDS011;1611;49.394;11.136;2023-09-30T12:10:48;11.13;;;4.90;;
3197;SDS011;1611;49.394;11.136;2023-09-30T12:13:15;6.03;;;4.70;;
3197;SDS011;1611;49.394;11.136;2023-09-30T12:15:42;9.80;;;5.67;;
3197;SDS011;1611;49.394;11.136;2023-09-30T12:18:09;15.07;;;5.70;;
3197;SDS011;1611;49.394;11.136;2023-09-30T12:20:38;11.30;;;5.07;;
3197;SDS011;1611;49.394;11.136;2023-09-30T12:23:07;9.70;;;4.97;;
3197;SDS011;1611;49.394;11.136;2023-09-30T12:25:34;9.17;;;4.97;;
3197;SDS011;1611;49.394;11.136;2023-09-30T12:28:02;9.57;;;5.13;;
3197;SDS011;1611;49.394;11.136;2023-09-30T12:30:30;7.03;;;5.00;;
3197;SDS011;1611;49.394;11.136;2023-09-30T12:32:57;7.17;;;4.73;;
3197;SDS011;1611;49.394;11.136;2023-09-30T12:35:24;8.03;;;5.00;;
3197;SDS011;1611;49.394;11.136;2023-09-30T12:37:51;8.50;;;4.60;;
3197;SDS011;1611;49.394;11.136;2023-09-30T12:40:19;14.73;;;6.43;;
3197;SDS011;1611;49.394;11.136;2023-09-30T12:42:46;6.90;;;3.90;;
3197;SDS011;1611;49.394;11.136;2023-09-30T12:45:12;8.50;;;4.63;;
3197;SDS011;1611;49.394;11.136;2023-09-30T12:47:39;12.93;;;4.83;;
3197;SDS011;1611;49.394;11.136;2023-09-30T12:50:06;12.63;;;6.37;;
3197;SDS011;1611;49.394;11.136;2023-09-30T12:52:34;8.30;;;4.60;;
3197;SDS011;1611;49.394;11.136;2023-09-30T12:55:03;11.07;;;5.20;;
3197;SDS011;1611;49.394;11.136;2023-09-30T12:57:32;10.97;;;5.10;;
3197;SDS011;1611;49.394;11.136;2023-09-30T12:59:59;5.93;;;4.53;;
3197;SDS011;1611;49.394;11.136;2023-09-30T13:02:25;9.47;;;5.97;;
3197;SDS011;1611;49.394;11.136;2023-09-30T13:04:52;10.80;;;4.63;;
3197;SDS011;1611;49.394;11.136;2023-09-30T13:07:19;5.53;;;5.00;;
3197;SDS011;1611;49.394;11.136;2023-09-30T13:09:46;16.33;;;5.33;;
3197;SDS011;1611;49.394;11.136;2023-09-30T13:12:13;7.57;;;5.00;;
3197;SDS011;1611;49.394;11.136;2023-09-30T13:14:41;13.83;;;5.40;;
3197;SDS011;1611;49.394;11.136;2023-09-30T13:17:08;9.77;;;4.80;;
3197;SDS011;1611;49.394;11.136;2023-09-30T13:19:37;8.60;;;5.20;;
3197;SDS011;1611;49.394;11.136;2023-09-30T13:22:04;11.43;;;5.30;;
3197;SDS011;1611;49.394;11.136;2023-09-30T13:24:32;10.20;;;5.10;;
3197;SDS011;1611;49.394;11.136;2023-09-30T13:27:02;10.83;;;5.13;;
3197;SDS011;1611;49.394;11.136;2023-09-30T13:29:29;7.30;;;5.40;;
3197;SDS011;1611;49.394;11.136;2023-09-30T13:31:57;13.47;;;7.00;;
3197;SDS011;1611;49.394;11.136;2023-09-30T13:34:24;11.47;;;6.00;;
3197;SDS011;1611;49.394;11.136;2023-09-30T13:36:51;11.40;;;5.30;;
3197;SDS011;1611;49.394;11.136;2023-09-30T13:39:17;12.67;;;5.90;;
3197;SDS011;1611;49.394;11.136;2023-09-30T13:41:45;7.97;;;5.03;;
3197;SDS011;1611;49.394;11.136;2023-09-30T13:44:13;11.33;;;4.90;;
3197;SDS011;1611;49.394;11.136;2023-09-30T13:46:39;10.47;;;5.87;;
3197;SDS011;1611;49.394;11.136;2023-09-30T13:49:08;13.33;;;6.10;;
3197;SDS011;1611;49.394;11.136;2023-09-30T13:51:35;9.77;;;5.97;;
3197;SDS011;1611;49.394;11.136;2023-09-30T13:54:04;9.30;;;6.23;;
3197;SDS011;1611;49.394;11.136;2023-09-30T13:56:32;9.47;;;5.50;;
3197;SDS011;1611;49.394;11.136;2023-09-30T13:58:59;11.57;;;5.77;;
3197;SDS011;1611;49.394;11.136;2023-09-30T14:01:26;8.07;;;5.20;;
3197;SDS011;1611;49.394;11.136;2023-09-30T14:03:53;15.17;;;6.70;;
3197;SDS011;1611;49.394;11.136;2023-09-30T14:06:23;10.07;;;6.13;;
3197;SDS011;1611;49.394;11.136;2023-09-30T14:08:50;10.67;;;5.80;;
3197;SDS011;1611;49.394;11.136;2023-09-30T14:11:19;13.77;;;6.00;;
3197;SDS011;1611;49.394;11.136;2023-09-30T14:13:46;10.70;;;5.53;;
3197;SDS011;1611;49.394;11.136;2023-09-30T14:16:14;12.40;;;6.10;;
3197;SDS011;1611;49.394;11.136;2023-09-30T14:18:41;10.03;;;5.73;;
3197;SDS011;1611;49.394;11.136;2023-09-30T14:21:08;12.87;;;5.53;;
3197;SDS011;1611;49.394;11.136;2023-09-30T14:23:36;11.57;;;5.83;;
3197;SDS011;1611;49.394;11.136;2023-09-30T14:26:02;8.87;;;5.07;;
3197;SDS011;1611;49.394;11.136;2023-09-30T14:28:35;7.07;;;5.30;;
3197;SDS011;1611;49.394;11.136;2023-09-30T14:31:02;15.77;;;5.57;;
3197;SDS011;1611;49.394;11.136;2023-09-30T14:33:30;11.40;;;5.90;;
3197;SDS011;1611;49.394;11.136;2023-09-30T14:35:56;12.60;;;6.20;;
3197;SDS011;1611;49.394;11.136;2023-09-30T14:38:23;14.47;;;6.20;;
3197;SDS011;1611;49.394;11.136;2023-09-30T14:40:52;16.53;;;6.33;;
3197;SDS011;1611;49.394;11.136;2023-09-30T14:43:18;13.53;;;6.37;;
3197;SDS011;1611;49.394;11.136;2023-09-30T14:45:45;20.13;;;5.93;;
3197;SDS011;1611;49.394;11.136;2023-09-30T14:48:12;19.53;;;6.17;;
3197;SDS011;1611;49.394;11.136;2023-09-30T14:50:47;12.80;;;6.00;;
3197;SDS011;1611;49.394;11.136;2023-09-30T14:53:14;16.90;;;7.33;;
3197;SDS011;1611;49.394;11.136;2023-09-30T14:55:41;11.00;;;6.20;;
3197;SDS011;1611;49.394;11.136;2023-09-30T14:58:10;12.80;;;6.77;;
3197;SDS011;1611;49.394;11.136;2023-09-30T15:00:36;10.17;;;5.53;;
3197;SDS011;1611;49.394;11.136;2023-09-30T15:03:03;11.37;;;6.60;;
3197;SDS011;1611;49.394;11.136;2023-09-30T15:05:31;13.17;;;6.77;;
3197;SDS011;1611;49.394;11.136;2023-09-30T15:07:58;14.07;;;7.30;;
3197;SDS011;1611;49.394;11.136;2023-09-30T15:10:26;12.57;;;6.57;;
3197;SDS011;1611;49.394;11.136;2023-09-30T15:12:53;16.17;;;6.30;;
3197;SDS011;1611;49.394;11.136;2023-09-30T15:15:22;18.73;;;6.93;;